createdAt,value
2017-07-09T00:02:40.180Z,0
2017-07-09T00:03:56.742Z,0
2017-07-09T00:05:26.197Z,0
2017-07-09T00:06:40.633Z,0
2017-07-09T00:07:54.611Z,0
2017-07-09T00:09:08.918Z,0
2017-07-09T00:10:37.817Z,0
2017-07-09T00:11:53.266Z,0
2017-07-09T00:13:07.456Z,0
2017-07-09T00:14:21.559Z,0
2017-07-09T00:15:35.378Z,0
2017-07-09T00:16:49.005Z,0
2017-07-09T00:18:03.336Z,0
2017-07-09T00:19:16.779Z,0
2017-07-09T00:20:30.216Z,0
2017-07-09T00:21:45.027Z,0
2017-07-09T00:22:58.806Z,0
2017-07-09T00:24:27.740Z,0
2017-07-09T00:25:42.085Z,0
2017-07-09T00:26:55.995Z,0
2017-07-09T00:28:09.494Z,0
2017-07-09T00:29:23.422Z,0
2017-07-09T00:30:37.759Z,0
2017-07-09T00:31:51.381Z,0
2017-07-09T00:33:05.231Z,0
2017-07-09T00:34:19.820Z,0
2017-07-09T00:35:34.072Z,0
2017-07-09T00:36:48.525Z,0
2017-07-09T00:38:02.123Z,0
2017-07-09T00:39:16.119Z,0
2017-07-09T00:40:30.207Z,0
2017-07-09T00:41:43.970Z,0
2017-07-09T00:42:58.445Z,0
2017-07-09T00:44:12.227Z,0
2017-07-09T00:45:25.756Z,0
2017-07-09T00:46:39.515Z,0
2017-07-09T00:47:53.579Z,0
2017-07-09T00:49:07.659Z,0
2017-07-09T00:50:21.407Z,0
2017-07-09T00:51:34.845Z,0
2017-07-09T00:52:48.778Z,0
2017-07-09T00:54:02.840Z,0
2017-07-09T00:55:17.720Z,0
2017-07-09T00:56:31.333Z,0
2017-07-09T00:57:45.163Z,0
2017-07-09T00:58:59.326Z,0
2017-07-09T01:00:12.943Z,0
2017-07-09T01:01:27.339Z,0
2017-07-09T01:02:40.782Z,0
2017-07-09T01:03:54.510Z,0
2017-07-09T01:05:08.424Z,0
2017-07-09T01:06:22.325Z,0
2017-07-09T01:07:36.343Z,0
2017-07-09T01:08:50.194Z,0
2017-07-09T01:10:04.657Z,0
2017-07-09T01:11:18.255Z,0
2017-07-09T01:12:32.066Z,0
2017-07-09T01:13:46.439Z,0
2017-07-09T01:15:00.231Z,0
2017-07-09T01:16:14.028Z,0
2017-07-09T01:17:27.464Z,0
2017-07-09T01:18:41.843Z,0
2017-07-09T01:19:55.922Z,0
2017-07-09T01:21:10.067Z,0
2017-07-09T01:22:23.638Z,0
2017-07-09T01:23:51.971Z,0
2017-07-09T01:25:05.911Z,0
2017-07-09T01:26:19.647Z,0
2017-07-09T01:27:33.414Z,0
2017-07-09T01:28:46.872Z,0
2017-07-09T01:30:00.454Z,0
2017-07-09T01:31:14.186Z,0
2017-07-09T01:32:28.256Z,0
2017-07-09T01:33:42.398Z,0
2017-07-09T01:34:56.098Z,0
2017-07-09T01:36:09.705Z,0
2017-07-09T01:37:24.972Z,0
2017-07-09T01:38:38.990Z,0
2017-07-09T01:39:53.122Z,0
2017-07-09T01:41:07.165Z,0
2017-07-09T01:42:20.803Z,0
2017-07-09T01:43:41.202Z,0
2017-07-09T01:44:55.253Z,0
2017-07-09T01:46:08.773Z,0
2017-07-09T01:47:22.633Z,0
2017-07-09T01:48:36.551Z,0
2017-07-09T01:49:50.519Z,0
2017-07-09T01:51:04.634Z,0
2017-07-09T01:52:19.248Z,0
2017-07-09T01:53:32.713Z,0
2017-07-09T01:54:46.334Z,0
2017-07-09T01:56:00.168Z,0
2017-07-09T01:57:28.680Z,0
2017-07-09T01:58:42.124Z,0
2017-07-09T02:00:11.296Z,0
2017-07-09T02:01:25.282Z,0
2017-07-09T02:02:54.223Z,0
2017-07-09T02:04:07.790Z,0
2017-07-09T02:05:21.339Z,0
2017-07-09T02:06:34.825Z,0
2017-07-09T02:07:48.534Z,0
2017-07-09T02:09:02.202Z,0
2017-07-09T02:10:15.970Z,0
2017-07-09T02:11:30.357Z,0
2017-07-09T02:12:43.886Z,0
2017-07-09T02:13:57.584Z,0
2017-07-09T02:15:11.647Z,0
2017-07-09T02:16:25.391Z,0
2017-07-09T02:17:39.097Z,0
2017-07-09T02:18:52.549Z,0
2017-07-09T02:20:07.168Z,0
2017-07-09T02:21:20.953Z,0
2017-07-09T02:22:35.376Z,0
2017-07-09T02:23:49.036Z,0
2017-07-09T02:25:03.161Z,0
2017-07-09T02:26:17.003Z,0
2017-07-09T02:27:31.305Z,0
2017-07-09T02:28:45.634Z,0
2017-07-09T02:29:59.320Z,0
2017-07-09T02:31:12.839Z,0
2017-07-09T02:32:26.824Z,0
2017-07-09T02:33:40.890Z,0
2017-07-09T02:34:54.638Z,0
2017-07-09T02:36:15.258Z,0
2017-07-09T02:37:28.720Z,0
2017-07-09T02:38:42.445Z,0
2017-07-09T02:39:56.085Z,0
2017-07-09T02:41:09.538Z,0
2017-07-09T02:42:23.420Z,0
2017-07-09T02:43:36.879Z,0
2017-07-09T02:44:50.535Z,0
2017-07-09T02:46:18.788Z,0
2017-07-09T02:47:32.587Z,0
2017-07-09T02:48:46.294Z,0
2017-07-09T02:49:59.708Z,0
2017-07-09T02:51:13.375Z,0
2017-07-09T02:52:26.855Z,0
2017-07-09T02:53:40.301Z,0
2017-07-09T02:54:54.136Z,0
2017-07-09T02:56:07.559Z,0
2017-07-09T02:57:21.271Z,0
2017-07-09T02:58:34.785Z,0
2017-07-09T02:59:48.198Z,0
2017-07-09T03:01:01.864Z,0
2017-07-09T03:02:15.452Z,0
2017-07-09T03:03:30.044Z,0
2017-07-09T03:04:43.763Z,0
2017-07-09T03:05:57.167Z,0
2017-07-09T03:07:10.833Z,0
2017-07-09T03:08:24.317Z,0
2017-07-09T03:09:38.012Z,0
2017-07-09T03:10:51.446Z,0
2017-07-09T03:12:04.885Z,0
2017-07-09T03:13:18.954Z,0
2017-07-09T03:14:32.439Z,5
2017-07-09T03:15:47.012Z,5
2017-07-09T03:17:00.471Z,5
2017-07-09T03:18:14.429Z,5
2017-07-09T03:19:28.155Z,5
2017-07-09T03:20:41.881Z,5
2017-07-09T03:21:55.614Z,5
2017-07-09T03:23:09.011Z,5
2017-07-09T03:24:23.177Z,5
2017-07-09T03:25:37.138Z,5
2017-07-09T03:26:50.549Z,10
2017-07-09T03:28:04.215Z,10
2017-07-09T03:29:17.661Z,10
2017-07-09T03:30:31.973Z,10
2017-07-09T03:31:45.949Z,10
2017-07-09T03:32:59.426Z,10
2017-07-09T03:34:13.202Z,10
2017-07-09T03:35:26.670Z,15
2017-07-09T03:36:41.473Z,15
2017-07-09T03:37:55.217Z,15
2017-07-09T03:39:08.753Z,20
2017-07-09T03:40:22.790Z,20
2017-07-09T03:41:51.055Z,20
2017-07-09T03:43:04.778Z,25
2017-07-09T03:44:18.557Z,25
2017-07-09T03:45:32.270Z,30
2017-07-09T03:46:45.731Z,30
2017-07-09T03:47:59.504Z,35
2017-07-09T03:49:13.149Z,35
2017-07-09T03:50:26.987Z,35
2017-07-09T03:51:40.798Z,40
2017-07-09T03:52:54.206Z,45
2017-07-09T03:54:07.687Z,40
2017-07-09T03:55:21.357Z,45
2017-07-09T03:56:34.897Z,45
2017-07-09T03:57:48.739Z,50
2017-07-09T03:59:02.327Z,50
2017-07-09T04:00:16.093Z,55
2017-07-09T04:01:30.507Z,55
2017-07-09T04:02:44.353Z,50
2017-07-09T04:03:58.463Z,50
2017-07-09T04:05:11.874Z,55
2017-07-09T04:06:25.847Z,55
2017-07-09T04:07:39.661Z,60
2017-07-09T04:08:53.567Z,65
2017-07-09T04:10:07.235Z,75
2017-07-09T04:11:35.520Z,75
2017-07-09T04:12:49.237Z,75
2017-07-09T04:14:02.981Z,80
2017-07-09T04:15:16.649Z,80
2017-07-09T04:16:30.465Z,85
2017-07-09T04:17:43.907Z,90
2017-07-09T04:18:57.289Z,100
2017-07-09T04:20:25.808Z,115
2017-07-09T04:21:39.639Z,120
2017-07-09T04:22:53.601Z,125
2017-07-09T04:24:07.023Z,115
2017-07-09T04:25:20.449Z,115
2017-07-09T04:26:34.173Z,110
2017-07-09T04:27:47.592Z,100
2017-07-09T04:29:01.406Z,105
2017-07-09T04:30:15.544Z,105
2017-07-09T04:31:29.033Z,105
2017-07-09T04:32:43.094Z,110
2017-07-09T04:33:57.038Z,110
2017-07-09T04:35:10.796Z,115
2017-07-09T04:36:24.199Z,125
2017-07-09T04:37:37.655Z,130
2017-07-09T04:38:51.319Z,145
2017-07-09T04:40:04.744Z,170
2017-07-09T04:41:18.412Z,170
2017-07-09T04:42:31.928Z,185
2017-07-09T04:43:45.990Z,160
2017-07-09T04:44:59.653Z,160
2017-07-09T04:46:13.082Z,185
2017-07-09T04:47:27.087Z,190
2017-07-09T04:48:40.702Z,170
2017-07-09T04:49:54.118Z,150
2017-07-09T04:51:07.770Z,150
2017-07-09T04:52:21.187Z,150
2017-07-09T04:53:35.263Z,170
2017-07-09T04:54:49.752Z,215
2017-07-09T04:56:03.179Z,235
2017-07-09T04:57:16.851Z,170
2017-07-09T04:58:30.672Z,185
2017-07-09T04:59:44.355Z,210
2017-07-09T05:00:58.246Z,240
2017-07-09T05:02:43.193Z,270
2017-07-09T05:04:14.145Z,215
2017-07-09T05:05:49.495Z,280
2017-07-09T05:07:26.978Z,370
2017-07-09T05:08:40.889Z,425
2017-07-09T05:09:55.083Z,500
2017-07-09T05:11:08.741Z,520
2017-07-09T05:12:22.155Z,475
2017-07-09T05:13:35.574Z,370
2017-07-09T05:15:04.457Z,370
2017-07-09T05:16:18.443Z,395
2017-07-09T05:17:32.341Z,530
2017-07-09T05:18:46.305Z,450
2017-07-09T05:20:00.156Z,440
2017-07-09T05:21:14.710Z,385
2017-07-09T05:22:28.783Z,440
2017-07-09T05:23:42.519Z,550
2017-07-09T05:24:56.036Z,435
2017-07-09T05:26:09.786Z,560
2017-07-09T05:27:23.600Z,625
2017-07-09T05:28:38.078Z,590
2017-07-09T05:29:51.547Z,510
2017-07-09T05:31:05.075Z,550
2017-07-09T05:32:18.496Z,325
2017-07-09T05:33:32.406Z,205
2017-07-09T05:34:46.382Z,210
2017-07-09T05:36:00.197Z,245
2017-07-09T05:37:13.630Z,245
2017-07-09T05:38:27.580Z,275
2017-07-09T05:39:41.234Z,285
2017-07-09T05:40:55.051Z,250
2017-07-09T05:42:08.799Z,235
2017-07-09T05:43:23.068Z,225
2017-07-09T05:44:37.509Z,220
2017-07-09T05:45:51.572Z,225
2017-07-09T05:47:05.529Z,240
2017-07-09T05:48:19.286Z,255
2017-07-09T05:49:32.831Z,245
2017-07-09T05:50:46.250Z,240
2017-07-09T05:51:59.992Z,255
2017-07-09T05:53:13.650Z,235
2017-07-09T05:54:27.158Z,245
2017-07-09T05:55:40.910Z,255
2017-07-09T05:56:54.713Z,255
2017-07-09T05:58:08.465Z,265
2017-07-09T05:59:22.195Z,275
2017-07-09T06:00:35.605Z,270
2017-07-09T06:01:49.369Z,265
2017-07-09T06:03:02.776Z,260
2017-07-09T06:04:16.828Z,260
2017-07-09T06:05:45.370Z,260
2017-07-09T06:06:59.008Z,260
2017-07-09T06:08:12.773Z,255
2017-07-09T06:09:41.543Z,255
2017-07-09T06:10:55.708Z,250
2017-07-09T06:12:09.182Z,245
2017-07-09T06:13:23.632Z,245
2017-07-09T06:14:37.067Z,245
2017-07-09T06:15:50.736Z,240
2017-07-09T06:17:04.468Z,240
2017-07-09T06:18:17.888Z,240
2017-07-09T06:19:31.666Z,235
2017-07-09T06:20:45.168Z,235
2017-07-09T06:21:58.931Z,240
2017-07-09T06:23:12.681Z,245
2017-07-09T06:24:26.101Z,240
2017-07-09T06:25:39.798Z,235
2017-07-09T06:26:53.565Z,235
2017-07-09T06:28:07.731Z,230
2017-07-09T06:29:21.723Z,235
2017-07-09T06:30:35.124Z,230
2017-07-09T06:31:48.872Z,230
2017-07-09T06:34:31.361Z,225
2017-07-09T06:35:46.345Z,220
2017-07-09T06:36:59.758Z,220
2017-07-09T06:38:13.286Z,220
2017-07-09T06:39:26.954Z,215
2017-07-09T06:40:40.597Z,215
2017-07-09T06:41:54.289Z,215
2017-07-09T06:43:23.057Z,215
2017-07-09T06:44:36.526Z,215
2017-07-09T06:45:50.254Z,210
2017-07-09T06:47:04.343Z,210
2017-07-09T06:48:17.995Z,210
2017-07-09T06:49:46.585Z,210
2017-07-09T06:51:00.063Z,210
2017-07-09T06:52:14.354Z,210
2017-07-09T06:53:28.189Z,210
2017-07-09T06:54:41.917Z,205
2017-07-09T06:55:55.435Z,205
2017-07-09T06:57:08.948Z,205
2017-07-09T06:58:22.415Z,205
2017-07-09T06:59:36.831Z,210
2017-07-09T07:00:50.432Z,210
2017-07-09T07:02:04.697Z,210
2017-07-09T07:03:18.504Z,210
2017-07-09T07:04:32.381Z,210
2017-07-09T07:05:47.047Z,210
2017-07-09T07:07:16.201Z,210
2017-07-09T07:08:30.583Z,210
2017-07-09T07:09:44.535Z,210
2017-07-09T07:10:58.413Z,210
2017-07-09T07:12:12.271Z,210
2017-07-09T07:13:25.708Z,210
2017-07-09T07:14:39.739Z,210
2017-07-09T07:15:53.298Z,210
2017-07-09T07:17:07.545Z,210
2017-07-09T07:18:21.021Z,210
2017-07-09T07:19:34.543Z,205
2017-07-09T07:20:49.827Z,205
2017-07-09T07:22:03.580Z,210
2017-07-09T07:23:17.536Z,210
2017-07-09T07:24:31.614Z,210
2017-07-09T07:25:45.469Z,210
2017-07-09T07:26:59.646Z,210
2017-07-09T07:28:13.606Z,210
2017-07-09T07:29:27.509Z,210
2017-07-09T07:30:41.431Z,210
2017-07-09T07:31:55.397Z,215
2017-07-09T07:33:09.746Z,210
2017-07-09T07:34:24.272Z,205
2017-07-09T07:35:38.315Z,205
2017-07-09T07:36:52.186Z,205
2017-07-09T07:38:05.667Z,205
2017-07-09T07:39:19.375Z,205
2017-07-09T07:40:33.326Z,210
2017-07-09T07:41:47.066Z,210
2017-07-09T07:43:00.533Z,210
2017-07-09T07:44:14.617Z,210
2017-07-09T07:45:28.612Z,210
2017-07-09T07:46:42.322Z,210
2017-07-09T07:47:56.418Z,205
2017-07-09T07:49:09.913Z,205
2017-07-09T07:50:24.191Z,210
2017-07-09T07:51:38.924Z,210
2017-07-09T07:54:21.727Z,205
2017-07-09T07:55:35.903Z,205
2017-07-09T07:56:49.673Z,205
2017-07-09T07:58:03.916Z,205
2017-07-09T07:59:18.365Z,205
2017-07-09T08:00:32.339Z,205
2017-07-09T08:01:46.441Z,210
2017-07-09T08:03:00.527Z,210
2017-07-09T08:04:14.444Z,210
2017-07-09T08:05:28.556Z,210
2017-07-09T08:06:42.983Z,210
2017-07-09T08:07:57.283Z,210
2017-07-09T08:09:26.240Z,215
2017-07-09T08:10:47.002Z,210
2017-07-09T08:12:02.334Z,210
2017-07-09T08:13:30.774Z,210
2017-07-09T08:14:46.091Z,210
2017-07-09T08:15:59.960Z,210
2017-07-09T08:17:13.678Z,205
2017-07-09T08:18:27.467Z,205
2017-07-09T08:19:40.973Z,210
2017-07-09T08:20:55.004Z,210
2017-07-09T08:22:27.265Z,210
2017-07-09T08:23:42.367Z,210
2017-07-09T08:25:26.571Z,210
2017-07-09T08:26:57.057Z,215
2017-07-09T08:28:11.659Z,215
2017-07-09T08:29:30.891Z,215
2017-07-09T08:30:46.393Z,215
2017-07-09T08:32:04.146Z,215
2017-07-09T08:33:18.004Z,215
2017-07-09T08:36:02.365Z,205
2017-07-09T08:37:16.370Z,215
2017-07-09T08:38:30.317Z,215
2017-07-09T08:39:44.431Z,215
2017-07-09T08:40:58.592Z,215
2017-07-09T08:42:13.617Z,205
2017-07-09T08:43:29.950Z,205
2017-07-09T08:44:43.756Z,200
2017-07-09T08:45:57.413Z,195
2017-07-09T08:47:26.856Z,200
2017-07-09T08:48:42.769Z,200
2017-07-09T08:49:56.437Z,185
2017-07-09T08:51:10.321Z,195
2017-07-09T08:52:23.862Z,200
2017-07-09T08:53:38.511Z,210
2017-07-09T08:54:52.524Z,210
2017-07-09T08:56:06.099Z,205
2017-07-09T08:57:20.504Z,210
2017-07-09T08:58:34.625Z,210
2017-07-09T09:00:05.063Z,210
2017-07-09T09:01:19.442Z,210
2017-07-09T09:02:34.043Z,215
